createdAt,value
2023-04-09T00:11:21.672Z,70.53
2023-04-09T00:13:48.412Z,73.93
2023-04-09T00:16:15.344Z,79.50
2023-04-09T00:18:42.037Z,74.93
2023-04-09T00:47:23.557Z,79.03
2023-04-09T00:49:50.623Z,77.63
2023-04-09T00:52:17.266Z,72.07
2023-04-09T00:54:44.043Z,66.55
2023-04-09T01:12:57.402Z,71.15
2023-04-09T01:15:30.941Z,71.72
2023-04-09T01:18:07.465Z,73.70
2023-04-09T01:20:41.511Z,64.45
2023-04-09T01:27:06.031Z,63.85
2023-04-09T07:55:51.815Z,115.97
2023-04-09T07:58:18.447Z,111.10
2023-04-09T08:00:45.220Z,101.68
2023-04-09T08:03:12.715Z,86.90
2023-04-09T09:26:58.818Z,69.03
2023-04-09T09:29:26.229Z,60.97
2023-04-09T09:31:56.779Z,61.45
2023-04-09T09:34:25.348Z,66.68
2023-04-09T09:36:52.261Z,70.80
2023-04-09T10:08:00.113Z,66.80
2023-04-09T10:10:28.481Z,45.85
2023-04-09T10:12:56.210Z,68.18
2023-04-09T10:15:23.556Z,67.95
2023-04-09T10:17:50.578Z,67.85
2023-04-09T10:20:44.849Z,61.92
2023-04-09T10:30:55.279Z,41.80
2023-04-09T10:33:26.428Z,58.92
2023-04-09T10:35:55.238Z,56.53
2023-04-09T11:05:28.093Z,46.53
2023-04-09T11:08:03.440Z,45.30
2023-04-09T11:10:30.964Z,46.67
2023-04-09T11:12:57.654Z,45.42
2023-04-09T11:15:24.273Z,44.42
2023-04-09T11:17:51.216Z,48.55
2023-04-09T11:35:43.367Z,48.17
2023-04-09T11:38:11.478Z,46.58
2023-04-09T11:40:47.666Z,40.40
2023-04-09T11:43:16.465Z,43.15
2023-04-09T12:23:24.055Z,31.20
2023-04-09T12:26:54.113Z,32.80
2023-04-09T12:29:21.459Z,30.73
2023-04-09T12:31:48.157Z,30.92
2023-04-09T12:34:14.879Z,28.80
2023-04-09T12:36:41.677Z,28.80
2023-04-09T12:50:41.466Z,24.08
2023-04-09T12:53:08.887Z,28.08
2023-04-09T12:55:35.632Z,26.50
2023-04-09T12:58:02.524Z,30.27
2023-04-09T13:04:09.971Z,30.60
2023-04-09T13:21:50.684Z,27.00
2023-04-09T13:24:17.486Z,27.55
2023-04-09T13:26:44.160Z,22.35
2023-04-09T13:29:10.957Z,26.70
2023-04-09T13:31:37.661Z,24.90
2023-04-09T13:34:04.381Z,27.27
2023-04-09T14:08:15.796Z,21.52
2023-04-09T14:10:42.651Z,19.15
2023-04-09T14:13:11.867Z,19.42
2023-04-09T14:15:39.097Z,20.48
2023-04-09T18:20:24.301Z,15.95
2023-04-09T18:22:50.978Z,18.63
2023-04-09T18:25:17.812Z,17.88
2023-04-09T18:27:44.589Z,17.95
2023-04-09T18:30:11.746Z,19.10
2023-04-09T18:32:38.438Z,16.25
2023-04-09T19:09:44.695Z,19.80
2023-04-09T19:12:11.394Z,17.63
2023-04-09T19:14:40.110Z,16.50
2023-04-09T19:17:07.557Z,18.58
2023-04-09T19:19:34.714Z,21.75
2023-04-09T19:22:01.728Z,16.98
2023-04-09T19:24:30.452Z,20.08
2023-04-09T20:10:27.080Z,17.92
2023-04-09T20:12:58.604Z,20.85
2023-04-09T20:15:28.222Z,17.80
2023-04-09T20:17:55.021Z,16.15
2023-04-09T20:20:26.890Z,22.38
2023-04-09T20:22:56.300Z,20.75
2023-04-09T20:25:24.320Z,15.27
2023-04-09T20:27:54.604Z,19.65
2023-04-09T20:50:37.564Z,17.27
2023-04-09T20:53:04.237Z,18.17
2023-04-09T20:55:31.051Z,20.48
2023-04-09T20:57:58.391Z,19.63
